Pella, Iowa
Current Conditions -  °F | °C
As of 1:55 AM on Saturday 25 Oct 2014 (Local Time) from KPEA Reporting Station
Moderate Fog Moderate Fog  
Wind Chill: 54°   Ceiling: 200
Heat Index: 54°   Visibility: 0.25mi
Dew Point: 53°   Wind: 6mph
Humidity: 99%   Direction: 290°WNW
Pressure: 29.99"   Gusts: NA
Location:  41.41°N, 92.92°W
Report Text: KPEA 250655Z AUTO 29005KT 1/4SM FG VV002 12/12 A2999 RMK AO2 P0001 T01200119
Loading
Personal Weather Stations






























Interactive Weather Map
Tropical Storm Tracking
New forecast layout! Learn more

10-Day Weather Forecast

Advertisements
Track Severe Weather on mobile